createdAt,value
2022-10-26T00:01:17.925Z,101444.78
2022-10-26T00:03:47.233Z,101443.94
2022-10-26T00:06:18.958Z,101435.28
2022-10-26T00:08:47.646Z,101437.03
2022-10-26T00:11:16.301Z,101434.44
2022-10-26T00:13:44.006Z,101431.00
2022-10-26T00:16:14.006Z,101439.69
2022-10-26T00:18:41.837Z,101430.16
2022-10-26T00:21:11.145Z,101431.91
2022-10-26T00:23:38.995Z,101419.75
2022-10-26T00:26:07.543Z,101418.03
2022-10-26T00:28:35.172Z,101416.28
2022-10-26T00:31:09.305Z,101404.19
2022-10-26T00:33:37.136Z,101412.84
2022-10-26T00:36:05.298Z,101411.16
2022-10-26T00:38:32.922Z,101404.19
2022-10-26T00:41:00.448Z,101392.94
2022-10-26T00:43:27.834Z,101397.31
2022-10-26T00:45:58.176Z,101392.09
2022-10-26T00:48:47.920Z,101340.00
2022-10-26T00:51:24.583Z,101391.28
2022-10-26T00:53:53.617Z,101367.00
2022-10-26T00:56:21.418Z,101376.53
2022-10-26T00:58:49.501Z,101381.75
2022-10-26T01:01:17.254Z,101378.28
2022-10-26T01:03:45.895Z,101377.44
2022-10-26T01:06:14.590Z,101376.59
2022-10-26T01:08:44.907Z,101379.19
2022-10-26T01:11:13.599Z,101373.16
2022-10-26T01:13:43.244Z,101380.06
2022-10-26T01:16:54.912Z,101377.47
2022-10-26T01:19:43.021Z,101370.56
2022-10-26T01:22:21.530Z,101361.88
2022-10-26T01:25:07.575Z,101367.06
2022-10-26T01:28:03.001Z,101367.06
2022-10-26T01:30:41.015Z,101353.19
2022-10-26T01:33:17.454Z,101348.84
2022-10-26T01:36:03.438Z,101348.00
2022-10-26T01:38:53.770Z,101348.00
2022-10-26T01:41:29.443Z,101345.38
2022-10-26T01:44:02.453Z,101328.03
2022-10-26T01:46:34.419Z,101332.38
2022-10-26T01:49:08.425Z,101326.31
2022-10-26T01:51:36.807Z,101333.25
2022-10-26T01:54:04.301Z,101333.25
2022-10-26T01:56:35.789Z,101337.59
2022-10-26T01:59:23.916Z,101329.78
2022-10-26T02:01:52.065Z,101335.88
2022-10-26T02:04:37.509Z,101328.06
2022-10-26T02:07:17.018Z,101317.63
2022-10-26T02:10:08.729Z,101322.84
2022-10-26T02:13:03.523Z,101314.16
2022-10-26T02:15:50.145Z,101316.75
2022-10-26T02:18:46.562Z,101315.03
2022-10-26T02:21:22.088Z,101308.06
2022-10-26T02:23:52.993Z,101315.03
2022-10-26T02:26:25.237Z,101317.63
2022-10-26T02:28:57.179Z,101303.72
2022-10-26T02:31:26.788Z,101302.00
2022-10-26T02:33:58.020Z,101289.84
2022-10-26T02:36:30.046Z,101289.84
2022-10-26T02:38:59.511Z,101286.34
2022-10-26T02:41:29.683Z,101289.84
2022-10-26T02:44:14.111Z,101287.19
2022-10-26T02:46:42.949Z,101279.38
2022-10-26T02:49:11.228Z,101286.31
2022-10-26T02:51:57.382Z,101279.38
2022-10-26T02:54:30.810Z,101280.25
2022-10-26T02:57:08.550Z,101280.28
2022-10-26T02:59:39.255Z,101270.69
2022-10-26T03:02:06.949Z,101284.59
2022-10-26T03:04:36.448Z,101274.19
2022-10-26T03:07:03.990Z,101275.03
2022-10-26T03:09:31.854Z,101274.19
2022-10-26T03:11:59.354Z,101275.03
2022-10-26T03:14:26.859Z,101271.56
2022-10-26T03:16:54.332Z,101262.00
2022-10-26T03:19:21.929Z,101263.75
2022-10-26T03:21:49.407Z,101265.47
2022-10-26T03:24:16.903Z,101261.16
2022-10-26T03:26:44.501Z,101268.97
2022-10-26T03:29:11.999Z,101267.22
2022-10-26T03:31:39.452Z,101274.16
2022-10-26T03:34:06.918Z,101276.78
2022-10-26T03:36:34.386Z,101262.00
2022-10-26T03:39:01.842Z,101263.75
2022-10-26T03:41:29.262Z,101255.94
2022-10-26T03:43:56.693Z,101260.28
2022-10-26T03:46:24.133Z,101246.41
2022-10-26T03:48:51.615Z,101255.94
2022-10-26T03:51:19.047Z,101255.94
2022-10-26T03:53:46.510Z,101257.69
2022-10-26T03:56:13.978Z,101260.31
2022-10-26T03:58:41.471Z,101256.81
2022-10-26T04:01:09.041Z,101252.50
2022-10-26T04:03:36.523Z,101256.81
2022-10-26T04:06:05.150Z,101255.06
2022-10-26T04:08:32.614Z,101255.06
2022-10-26T04:11:03.681Z,101244.66
2022-10-26T04:13:32.203Z,101249.84
2022-10-26T04:15:59.965Z,101245.53
2022-10-26T04:18:27.410Z,101242.91
2022-10-26T04:20:54.866Z,101244.66
2022-10-26T04:23:22.419Z,101248.09
2022-10-26T04:25:49.990Z,101251.56
2022-10-26T04:28:17.504Z,101244.59
2022-10-26T04:30:44.977Z,101246.38
2022-10-26T04:33:12.600Z,101235.94
2022-10-26T04:35:40.109Z,101238.56
2022-10-26T04:38:08.573Z,101244.59
2022-10-26T04:40:36.487Z,101248.09
2022-10-26T04:43:04.048Z,101242.88
2022-10-26T04:45:32.111Z,101235.91
2022-10-26T04:48:04.733Z,101232.44
2022-10-26T04:50:32.733Z,101236.78
2022-10-26T04:53:00.377Z,101232.47
2022-10-26T04:55:27.896Z,101232.47
2022-10-26T04:57:57.247Z,101235.94
2022-10-26T05:00:28.290Z,101241.16
2022-10-26T05:03:05.901Z,101240.31
2022-10-26T05:05:35.396Z,101248.13
2022-10-26T05:08:02.907Z,101242.97
2022-10-26T05:10:30.655Z,101242.09
2022-10-26T05:13:00.240Z,101247.28
2022-10-26T05:15:28.733Z,101246.44
2022-10-26T05:17:58.045Z,101250.78
2022-10-26T05:20:29.640Z,101257.69
2022-10-26T05:23:01.097Z,101251.63
2022-10-26T05:25:30.277Z,101252.50
2022-10-26T05:28:02.526Z,101251.63
2022-10-26T05:30:30.704Z,101246.41
2022-10-26T05:32:59.719Z,101249.84
2022-10-26T05:35:27.903Z,101242.03
2022-10-26T05:37:55.479Z,101253.31
2022-10-26T05:40:23.096Z,101255.06
2022-10-26T05:42:51.325Z,101258.50
2022-10-26T05:45:19.445Z,101248.09
2022-10-26T05:47:47.811Z,101258.50
2022-10-26T05:50:15.682Z,101256.75
2022-10-26T05:52:47.723Z,101261.06
2022-10-26T05:55:17.663Z,101263.69
2022-10-26T05:57:45.670Z,101249.81
2022-10-26T06:00:19.677Z,101266.28
2022-10-26T06:03:08.447Z,101258.47
2022-10-26T06:06:00.662Z,101265.41
2022-10-26T06:08:30.520Z,101272.38
2022-10-26T06:10:59.623Z,101275.81
2022-10-26T06:13:27.454Z,101267.16
2022-10-26T06:16:13.492Z,101265.41
2022-10-26T06:18:51.003Z,101265.41
2022-10-26T06:21:19.101Z,101263.66
2022-10-26T06:23:59.471Z,101268.88
2022-10-26T06:26:34.236Z,101268.88
2022-10-26T06:29:12.793Z,101267.16
2022-10-26T06:31:40.346Z,101271.53
2022-10-26T06:34:07.867Z,101270.66
2022-10-26T06:36:36.243Z,101261.97
2022-10-26T06:39:06.735Z,101266.31
2022-10-26T06:41:36.488Z,101264.56
2022-10-26T06:44:06.814Z,101266.28
2022-10-26T06:47:23.746Z,101275.81
2022-10-26T06:49:57.934Z,101280.16
2022-10-26T06:52:38.402Z,101270.59
2022-10-26T06:55:06.450Z,101275.81
2022-10-26T06:57:37.294Z,101274.03
2022-10-26T07:00:20.621Z,101274.00
2022-10-26T07:02:49.173Z,101265.31
2022-10-26T07:05:17.176Z,101278.31
2022-10-26T07:07:47.555Z,101274.81
2022-10-26T07:10:16.495Z,101270.44
2022-10-26T07:12:44.005Z,101275.63
2022-10-26T07:15:12.136Z,101275.63
2022-10-26T07:17:48.177Z,101268.69
2022-10-26T07:20:17.623Z,101275.63
2022-10-26T07:22:45.200Z,101279.97
2022-10-26T07:25:13.227Z,101286.06
2022-10-26T07:27:41.154Z,101292.16
2022-10-26T07:30:09.255Z,101299.97
2022-10-26T07:32:36.768Z,101288.66
2022-10-26T07:35:04.313Z,101294.72
2022-10-26T07:37:31.855Z,101292.09
2022-10-26T07:40:04.014Z,101292.97
2022-10-26T07:42:34.173Z,101299.00
2022-10-26T07:45:01.585Z,101291.16
2022-10-26T07:47:29.043Z,101301.56
2022-10-26T07:49:56.499Z,101303.28
2022-10-26T07:52:23.946Z,101309.31
2022-10-26T07:54:51.477Z,101317.13
2022-10-26T07:57:18.934Z,101322.28
2022-10-26T07:59:46.523Z,101327.50
2022-10-26T08:02:13.958Z,101310.09
2022-10-26T08:04:41.453Z,101319.59
2022-10-26T08:07:08.932Z,101309.97
2022-10-26T08:09:36.409Z,101311.66
2022-10-26T08:12:03.869Z,101317.75
2022-10-26T08:14:31.397Z,101325.56
2022-10-26T08:16:58.845Z,101335.03
2022-10-26T08:19:26.321Z,101321.06
2022-10-26T08:21:53.878Z,101327.03
2022-10-26T08:24:21.273Z,101331.25
2022-10-26T08:26:48.725Z,101328.50
2022-10-26T08:29:16.242Z,101335.28
2022-10-26T08:31:43.763Z,101339.56
2022-10-26T08:34:11.261Z,101334.16
2022-10-26T08:36:41.120Z,101342.69
2022-10-26T08:39:08.594Z,101345.16
2022-10-26T08:41:42.145Z,101340.75
2022-10-26T08:44:26.869Z,101343.16
2022-10-26T08:47:15.504Z,101335.22
2022-10-26T08:50:03.102Z,101337.69
2022-10-26T08:52:39.294Z,101323.69
2022-10-26T08:55:16.812Z,101318.31
2022-10-26T08:57:48.158Z,101327.69
2022-10-26T09:00:25.964Z,101327.47
2022-10-26T09:02:56.574Z,101316.88
2022-10-26T09:05:39.348Z,101322.84
2022-10-26T09:08:15.597Z,101319.97
2022-10-26T09:11:08.638Z,101317.13
2022-10-26T09:13:49.651Z,101322.16
2022-10-26T09:16:52.158Z,101329.78
2022-10-26T09:19:33.851Z,101337.22
2022-10-26T09:22:19.930Z,101331.59
2022-10-26T09:24:56.941Z,101333.06
2022-10-26T09:27:35.637Z,101336.28
2022-10-26T09:30:13.865Z,101344.72
2022-10-26T09:32:48.260Z,101353.84
2022-10-26T09:35:21.336Z,101350.31
2022-10-26T09:37:58.125Z,101357.00
2022-10-26T09:40:36.394Z,101356.84
2022-10-26T09:43:13.584Z,101362.47
2022-10-26T09:45:47.280Z,101347.63
2022-10-26T09:48:32.180Z,101363.63
2022-10-26T09:51:03.541Z,101374.25
2022-10-26T09:53:32.813Z,101375.63
2022-10-26T09:56:09.153Z,101379.44
2022-10-26T09:58:42.739Z,101372.66
2022-10-26T10:01:42.886Z,101374.66
2022-10-26T10:04:22.608Z,101379.56
2022-10-26T10:06:54.379Z,101380.09
2022-10-26T10:09:24.699Z,101378.94
2022-10-26T10:11:58.549Z,101382.16
2022-10-26T10:14:34.707Z,101385.19
2022-10-26T10:17:20.481Z,101379.97
2022-10-26T10:19:48.147Z,101395.69
2022-10-26T10:22:15.545Z,101393.53
2022-10-26T10:24:53.828Z,101398.75
2022-10-26T10:27:23.303Z,101403.84
2022-10-26T10:29:59.887Z,101422.72
2022-10-26T10:32:35.762Z,101410.13
2022-10-26T10:35:25.139Z,101421.69
2022-10-26T10:37:53.529Z,101433.09
2022-10-26T10:40:24.661Z,101437.41
2022-10-26T10:42:54.638Z,101429.19
2022-10-26T10:45:28.694Z,101439.53
2022-10-26T10:48:21.488Z,101447.41
2022-10-26T10:51:23.334Z,101464.31
2022-10-26T10:53:56.877Z,101475.38
2022-10-26T10:56:29.649Z,101475.94
2022-10-26T10:59:13.270Z,101487.50
2022-10-26T11:01:48.997Z,101489.13
2022-10-26T11:04:45.901Z,101496.56
2022-10-26T11:07:16.168Z,101499.38
2022-10-26T11:09:47.605Z,101494.41
2022-10-26T11:12:20.074Z,101501.28
2022-10-26T11:14:53.355Z,101498.13
2022-10-26T11:17:53.935Z,101507.72
2022-10-26T11:20:25.552Z,101491.38
2022-10-26T11:22:53.243Z,101497.28
2022-10-26T11:25:29.132Z,101507.69
2022-10-26T11:28:06.339Z,101508.56
2022-10-26T11:30:37.513Z,101489.25
2022-10-26T11:33:17.161Z,101505.97
2022-10-26T11:36:08.855Z,101498.41
2022-10-26T11:39:04.011Z,101500.22
2022-10-26T11:41:48.133Z,101505.94
2022-10-26T11:44:40.869Z,101494.19
2022-10-26T11:47:23.385Z,101510.06
2022-10-26T11:49:58.360Z,101518.66
2022-10-26T11:52:40.722Z,101513.97
2022-10-26T11:55:11.888Z,101528.91
2022-10-26T11:57:39.637Z,101530.50
2022-10-26T12:00:20.120Z,101527.34
2022-10-26T12:02:52.161Z,101516.81
2022-10-26T12:05:22.264Z,101529.56
2022-10-26T12:07:54.491Z,101520.38
2022-10-26T12:10:24.748Z,101516.41
2022-10-26T12:13:06.269Z,101517.97
2022-10-26T12:16:03.130Z,101535.50
2022-10-26T12:18:55.011Z,101517.00
2022-10-26T12:21:27.038Z,101522.13
2022-10-26T12:24:00.253Z,101534.00
2022-10-26T12:26:27.647Z,101540.44
2022-10-26T12:29:04.284Z,101543.56
2022-10-26T12:31:37.598Z,101543.72
2022-10-26T12:34:06.964Z,101537.81
2022-10-26T12:36:55.994Z,101548.44
2022-10-26T12:39:33.769Z,101537.59
2022-10-26T12:42:07.000Z,101541.47
2022-10-26T12:45:01.701Z,101535.19
2022-10-26T12:47:29.111Z,101541.09
2022-10-26T12:50:09.223Z,101542.38
2022-10-26T12:52:51.030Z,101548.03
2022-10-26T12:55:55.708Z,101541.63
2022-10-26T12:58:42.732Z,101540.59
2022-10-26T13:01:48.504Z,101541.97
2022-10-26T13:04:21.398Z,101540.91
2022-10-26T13:07:21.236Z,101533.94
2022-10-26T13:09:59.102Z,101540.00
2022-10-26T13:12:28.927Z,101555.59
2022-10-26T13:15:01.636Z,101556.03
2022-10-26T13:17:32.527Z,101552.13
2022-10-26T13:20:06.580Z,101558.91
2022-10-26T13:22:34.376Z,101557.06
2022-10-26T13:25:05.550Z,101556.97
2022-10-26T13:27:36.014Z,101555.81
2022-10-26T13:30:06.512Z,101557.94
2022-10-26T13:32:40.049Z,101567.88
2022-10-26T13:35:13.632Z,101551.97
2022-10-26T13:37:47.393Z,101551.34
2022-10-26T13:40:19.487Z,101556.00
2022-10-26T13:42:48.953Z,101550.94
2022-10-26T13:45:22.250Z,101560.47
2022-10-26T13:48:06.823Z,101566.50
2022-10-26T13:50:47.794Z,101564.63
2022-10-26T13:53:36.506Z,101548.50
2022-10-26T13:56:31.326Z,101572.56
2022-10-26T13:59:03.602Z,101567.19
2022-10-26T14:01:32.243Z,101571.97
2022-10-26T14:03:59.843Z,101570.97
2022-10-26T14:06:37.059Z,101581.03
2022-10-26T14:09:14.642Z,101552.59
2022-10-26T14:11:58.184Z,101584.72
2022-10-26T14:14:34.916Z,101595.31
2022-10-26T14:17:02.918Z,101597.00
2022-10-26T14:19:34.848Z,101604.78
2022-10-26T14:22:03.274Z,101614.34
2022-10-26T14:24:46.836Z,101617.50
2022-10-26T14:27:26.492Z,101621.91
2022-10-26T14:30:21.938Z,101628.06
2022-10-26T14:32:42.858Z,101628.13
2022-10-26T14:35:15.254Z,101626.34
2022-10-26T14:38:06.835Z,101641.28
2022-10-26T14:40:36.628Z,101637.88
2022-10-26T14:43:06.451Z,101641.63
2022-10-26T14:45:48.098Z,101649.41
2022-10-26T14:48:34.292Z,101654.78
2022-10-26T14:51:12.324Z,101660.09
2022-10-26T14:53:50.388Z,101662.63
2022-10-26T14:56:23.612Z,101653.91
2022-10-26T14:58:51.473Z,101657.47
2022-10-26T15:01:25.126Z,101662.81
2022-10-26T15:04:01.940Z,101669.88
2022-10-26T15:06:29.317Z,101660.34
2022-10-26T15:08:59.000Z,101665.72
2022-10-26T15:11:30.957Z,101657.97
2022-10-26T15:13:58.947Z,101662.47
2022-10-26T15:16:40.736Z,101667.78
2022-10-26T15:19:11.374Z,101672.28
2022-10-26T15:21:41.162Z,101669.91
2022-10-26T15:24:38.649Z,101676.09
2022-10-26T15:27:16.739Z,101667.47
2022-10-26T15:29:46.843Z,101669.34
2022-10-26T15:32:31.365Z,101683.44
2022-10-26T15:35:32.247Z,101687.97
2022-10-26T15:38:01.023Z,101687.03
2022-10-26T15:40:31.026Z,101692.47
2022-10-26T15:43:00.782Z,101698.63
2022-10-26T15:45:31.748Z,101708.44
2022-10-26T15:48:01.392Z,101707.66
2022-10-26T15:50:30.003Z,101703.28
2022-10-26T15:53:02.791Z,101707.66
2022-10-26T15:55:31.738Z,101718.19
2022-10-26T15:57:59.270Z,101719.03
2022-10-26T16:00:26.805Z,101719.94
2022-10-26T16:02:54.345Z,101722.63
2022-10-26T16:05:21.936Z,101724.44
2022-10-26T16:07:50.004Z,101717.41
2022-10-26T16:10:25.778Z,101721.91
2022-10-26T16:12:53.982Z,101725.59
2022-10-26T16:15:25.509Z,101724.94
2022-10-26T16:17:53.565Z,101738.03
2022-10-26T16:20:27.307Z,101739.81
2022-10-26T16:22:55.487Z,101740.81
2022-10-26T16:25:27.256Z,101742.84
2022-10-26T16:27:56.253Z,101743.78
2022-10-26T16:30:29.458Z,101760.75
2022-10-26T16:32:57.980Z,101755.63
2022-10-26T16:35:25.426Z,101753.09
2022-10-26T16:37:52.917Z,101750.63
2022-10-26T16:40:20.387Z,101762.94
2022-10-26T16:42:48.105Z,101759.59
2022-10-26T16:45:16.575Z,101766.59
2022-10-26T16:47:44.017Z,101757.13
2022-10-26T16:50:14.512Z,101773.00
2022-10-26T16:52:42.033Z,101768.66
2022-10-26T16:55:10.328Z,101769.63
2022-10-26T16:57:37.965Z,101769.69
2022-10-26T17:00:07.529Z,101771.50
2022-10-26T17:02:35.273Z,101782.13
2022-10-26T17:05:06.115Z,101781.38
2022-10-26T17:07:35.022Z,101782.34
2022-10-26T17:10:02.793Z,101793.75
2022-10-26T17:12:30.986Z,101792.94
2022-10-26T17:15:00.462Z,101797.25
2022-10-26T17:17:28.021Z,101806.94
2022-10-26T17:19:56.353Z,101806.06
2022-10-26T17:22:23.923Z,101797.38
2022-10-26T17:24:51.419Z,101803.56
2022-10-26T17:27:19.122Z,101814.13
2022-10-26T17:29:46.671Z,101814.19
2022-10-26T17:32:16.243Z,101820.41
2022-10-26T17:34:44.074Z,101809.16
2022-10-26T17:37:11.563Z,101820.53
2022-10-26T17:39:39.018Z,101836.34
2022-10-26T17:42:06.590Z,101844.25
2022-10-26T17:44:35.089Z,101850.44
2022-10-26T17:47:02.586Z,101848.75
2022-10-26T17:49:33.647Z,101854.94
2022-10-26T17:52:03.557Z,101850.69
2022-10-26T17:54:31.069Z,101860.31
2022-10-26T17:56:58.787Z,101868.22
2022-10-26T17:59:26.332Z,101874.34
2022-10-26T18:01:53.880Z,101870.00
2022-10-26T18:04:22.434Z,101872.63
2022-10-26T18:06:51.316Z,101871.81
2022-10-26T18:09:18.853Z,101878.88
2022-10-26T18:11:46.807Z,101885.84
2022-10-26T18:14:14.785Z,101891.13
2022-10-26T18:16:42.250Z,101883.28
2022-10-26T18:19:11.370Z,101893.78
2022-10-26T18:21:38.895Z,101901.63
2022-10-26T18:24:10.049Z,101917.47
2022-10-26T18:26:37.922Z,101912.25
2022-10-26T18:29:06.811Z,101914.00
2022-10-26T18:31:35.703Z,101911.44
2022-10-26T18:34:06.748Z,101923.69
2022-10-26T18:36:34.768Z,101921.13
2022-10-26T18:39:02.325Z,101933.28
2022-10-26T18:41:30.064Z,101940.22
2022-10-26T18:43:59.828Z,101944.56
2022-10-26T18:46:30.086Z,101959.38
2022-10-26T18:49:00.628Z,101958.47
2022-10-26T18:51:32.331Z,101957.56
2022-10-26T18:54:00.188Z,101963.72
2022-10-26T18:56:28.179Z,101959.34
2022-10-26T18:59:00.386Z,101955.78
2022-10-26T19:01:32.174Z,101957.53
2022-10-26T19:04:05.609Z,101961.97
2022-10-26T19:06:35.614Z,101966.38
2022-10-26T19:09:04.227Z,101964.66
2022-10-26T19:11:32.681Z,101963.75
2022-10-26T19:14:00.178Z,101973.41
2022-10-26T19:16:48.198Z,101973.41
2022-10-26T19:19:17.328Z,101979.59
2022-10-26T19:21:45.849Z,101979.59
2022-10-26T19:24:23.722Z,101991.00
2022-10-26T19:26:52.515Z,101991.88
2022-10-26T19:29:20.641Z,101996.25
2022-10-26T19:31:51.364Z,101997.13
2022-10-26T19:34:19.368Z,101990.19
2022-10-26T19:36:47.247Z,101991.06
2022-10-26T19:39:18.853Z,101999.00
2022-10-26T19:41:47.010Z,101992.94
2022-10-26T19:44:15.711Z,101995.63
2022-10-26T19:46:44.363Z,102008.84
2022-10-26T19:49:12.507Z,102008.88
2022-10-26T19:51:40.060Z,102023.78
2022-10-26T19:54:07.764Z,102028.19
2022-10-26T19:56:36.980Z,102028.25
2022-10-26T19:59:05.379Z,102031.78
2022-10-26T20:01:33.021Z,102037.06
2022-10-26T20:04:02.293Z,102037.13
2022-10-26T20:06:30.701Z,102032.81
2022-10-26T20:08:58.338Z,102031.09
2022-10-26T20:11:25.824Z,102036.34
2022-10-26T20:13:54.828Z,102033.72
2022-10-26T20:16:22.691Z,102039.88
2022-10-26T20:18:50.156Z,102039.06
2022-10-26T20:21:18.460Z,102046.03
2022-10-26T20:23:46.699Z,102035.59
2022-10-26T20:26:18.494Z,102030.38
2022-10-26T20:28:48.655Z,102033.00
2022-10-26T20:31:16.320Z,102036.53
2022-10-26T20:33:43.976Z,102045.25
2022-10-26T20:36:11.417Z,102056.66
2022-10-26T20:38:40.518Z,102042.75
2022-10-26T20:41:11.889Z,102061.94
2022-10-26T20:43:41.536Z,102064.59
2022-10-26T20:46:28.513Z,102062.84
2022-10-26T20:48:56.255Z,102073.34
2022-10-26T20:51:51.989Z,102073.34
2022-10-26T20:54:40.354Z,102076.84
2022-10-26T20:57:13.778Z,102079.47
2022-10-26T20:59:51.446Z,102086.44
2022-10-26T21:02:18.953Z,102089.94
2022-10-26T21:04:46.423Z,102088.19
2022-10-26T21:07:13.923Z,102095.16
2022-10-26T21:09:41.535Z,102093.44
2022-10-26T21:12:09.036Z,102092.56
2022-10-26T21:14:40.664Z,102093.44
2022-10-26T21:17:09.262Z,102083.00
2022-10-26T21:19:37.127Z,102089.97
2022-10-26T21:22:04.891Z,102089.13
2022-10-26T21:24:32.396Z,102088.25
2022-10-26T21:26:59.955Z,102095.25
2022-10-26T21:29:27.419Z,102104.81
2022-10-26T21:31:54.874Z,102107.44
2022-10-26T21:34:22.335Z,102098.72
2022-10-26T21:36:49.801Z,102094.34
2022-10-26T21:39:17.317Z,102085.66
2022-10-26T21:41:44.880Z,102083.03
2022-10-26T21:44:24.599Z,102089.16
2022-10-26T21:46:59.771Z,102091.75
2022-10-26T21:49:27.252Z,102090.03
2022-10-26T21:51:54.713Z,102093.50
2022-10-26T21:54:22.363Z,102100.50
2022-10-26T21:56:49.852Z,102102.22
2022-10-26T21:59:17.624Z,102104.84
2022-10-26T22:01:45.217Z,102107.47
2022-10-26T22:04:12.880Z,102103.09
2022-10-26T22:06:40.399Z,102098.72
2022-10-26T22:09:07.982Z,102098.72
2022-10-26T22:11:35.523Z,102105.69
2022-10-26T22:14:03.185Z,102101.34
2022-10-26T22:16:32.622Z,102103.97
2022-10-26T22:19:06.618Z,102113.56
2022-10-26T22:21:36.948Z,102116.16
2022-10-26T22:24:04.713Z,102120.53
2022-10-26T22:26:34.821Z,102122.25
2022-10-26T22:29:02.407Z,102107.44
2022-10-26T22:31:33.333Z,102113.53
2022-10-26T22:34:07.904Z,102112.66
2022-10-26T22:36:36.522Z,102103.91
2022-10-26T22:39:04.708Z,102110.88
2022-10-26T22:41:32.486Z,102103.88
2022-10-26T22:44:00.008Z,102105.59
2022-10-26T22:46:28.950Z,102106.50
2022-10-26T22:48:58.358Z,102116.06
2022-10-26T22:51:27.579Z,102109.09
2022-10-26T22:53:56.559Z,102123.06
2022-10-26T22:56:28.210Z,102115.19
2022-10-26T22:58:55.915Z,102118.66
2022-10-26T23:01:26.474Z,102102.09
2022-10-26T23:03:56.109Z,102116.03
2022-10-26T23:06:25.894Z,102116.06
2022-10-26T23:08:53.469Z,102109.06
2022-10-26T23:11:23.243Z,102114.34
2022-10-26T23:13:58.959Z,102127.44
2022-10-26T23:16:27.084Z,102131.84
2022-10-26T23:18:54.894Z,102144.94
2022-10-26T23:21:24.301Z,102123.09
2022-10-26T23:23:52.087Z,102132.72
2022-10-26T23:26:22.125Z,102130.97
2022-10-26T23:28:50.836Z,102126.66
2022-10-26T23:31:21.226Z,102130.13
2022-10-26T23:33:51.389Z,102133.63
2022-10-26T23:36:19.768Z,102147.59
2022-10-26T23:38:48.062Z,102143.22
2022-10-26T23:41:15.691Z,102135.38
2022-10-26T23:43:43.376Z,102140.63
2022-10-26T23:46:11.081Z,102142.34
2022-10-26T23:48:38.888Z,102143.22
2022-10-26T23:51:10.104Z,102151.94
2022-10-26T23:53:37.624Z,102157.16
2022-10-26T23:56:05.438Z,102163.25
2022-10-26T23:58:32.938Z,102152.81
